createdAt,value
2023-04-23T00:00:19.282Z,31.55
2023-04-23T00:03:10.777Z,31.17
2023-04-23T00:05:39.396Z,29.75
2023-04-23T00:08:08.510Z,27.67
2023-04-23T00:10:37.311Z,24.33
2023-04-23T00:13:06.694Z,30.42
2023-04-23T00:15:35.498Z,30.70
2023-04-23T00:18:03.990Z,27.67
2023-04-23T00:20:34.218Z,28.58
2023-04-23T00:23:02.813Z,29.75
2023-04-23T00:25:31.114Z,37.10
2023-04-23T00:27:59.609Z,22.05
2023-04-23T00:30:27.840Z,24.20
2023-04-23T00:32:56.549Z,33.95
2023-04-23T00:35:24.704Z,27.80
2023-04-23T00:37:54.559Z,29.33
2023-04-23T00:40:23.651Z,27.60
2023-04-23T00:42:53.828Z,24.67
2023-04-23T00:45:22.500Z,31.90
2023-04-23T00:47:51.215Z,26.90
2023-04-23T00:50:19.470Z,24.33
2023-04-23T00:52:47.970Z,25.05
2023-04-23T00:55:20.921Z,28.67
2023-04-23T00:57:49.870Z,24.35
2023-04-23T01:00:20.405Z,25.48
2023-04-23T01:02:49.755Z,24.52
2023-04-23T01:05:19.257Z,22.42
2023-04-23T01:07:48.586Z,24.23
2023-04-23T01:10:18.706Z,26.95
2023-04-23T01:12:47.901Z,28.23
2023-04-23T01:15:16.751Z,21.02
2023-04-23T01:17:45.340Z,22.65
2023-04-23T01:20:13.688Z,18.10
2023-04-23T01:22:43.668Z,22.85
2023-04-23T01:25:12.140Z,25.45
2023-04-23T01:27:41.753Z,28.50
2023-04-23T01:30:10.953Z,28.70
2023-04-23T01:32:40.407Z,22.45
2023-04-23T01:35:09.316Z,22.35
2023-04-23T01:37:40.757Z,24.23
2023-04-23T01:40:11.237Z,18.33
2023-04-23T01:42:40.093Z,19.35
2023-04-23T01:45:10.115Z,26.52
2023-04-23T01:47:38.906Z,17.58
2023-04-23T01:50:08.246Z,27.58
2023-04-23T01:52:36.737Z,31.27
2023-04-23T01:55:05.475Z,25.52
2023-04-23T01:57:35.695Z,24.60
2023-04-23T02:00:08.492Z,16.10
2023-04-23T02:02:37.332Z,23.23
2023-04-23T02:05:06.983Z,25.50
2023-04-23T02:07:36.992Z,17.73
2023-04-23T02:10:06.072Z,22.10
2023-04-23T02:12:36.033Z,30.25
2023-04-23T02:15:04.770Z,21.77
2023-04-23T02:17:33.371Z,22.40
2023-04-23T02:20:02.324Z,23.05
2023-04-23T02:22:31.600Z,20.98
2023-04-23T02:25:00.167Z,18.38
2023-04-23T02:27:28.768Z,23.55
2023-04-23T02:29:58.816Z,26.45
2023-04-23T02:32:28.114Z,20.17
2023-04-23T02:34:56.623Z,23.95
2023-04-23T02:37:25.095Z,20.15
2023-04-23T02:39:53.285Z,22.65
2023-04-23T02:42:22.070Z,19.67
2023-04-23T02:44:50.237Z,28.13
2023-04-23T02:47:20.121Z,17.42
2023-04-23T02:49:48.368Z,29.77
2023-04-23T02:52:17.592Z,21.02
2023-04-23T02:54:45.932Z,25.60
2023-04-23T02:57:16.405Z,25.27
2023-04-23T02:59:44.843Z,18.33
2023-04-23T03:02:13.932Z,26.52
2023-04-23T03:04:43.900Z,24.83
2023-04-23T03:07:13.316Z,26.25
2023-04-23T03:09:42.381Z,23.40
2023-04-23T03:12:11.155Z,20.77
2023-04-23T03:14:39.484Z,24.45
2023-04-23T03:17:08.126Z,23.80
2023-04-23T03:19:36.542Z,22.80
2023-04-23T03:22:06.620Z,30.35
2023-04-23T03:24:35.676Z,18.40
2023-04-23T03:27:04.322Z,27.17
2023-04-23T03:29:32.556Z,26.95
2023-04-23T03:32:01.039Z,22.73
2023-04-23T03:34:29.554Z,26.30
2023-04-23T03:36:58.108Z,25.08
2023-04-23T03:39:27.825Z,29.38
2023-04-23T03:41:58.143Z,26.60
2023-04-23T03:44:29.331Z,17.73
2023-04-23T03:46:58.224Z,26.48
2023-04-23T03:49:27.940Z,23.75
2023-04-23T03:51:56.877Z,25.23
2023-04-23T03:54:26.653Z,20.45
2023-04-23T03:56:57.690Z,25.05
2023-04-23T03:59:25.876Z,18.23
2023-04-23T04:01:54.440Z,30.38
2023-04-23T04:04:23.534Z,23.98
2023-04-23T04:06:52.534Z,25.13
2023-04-23T04:09:22.057Z,24.40
2023-04-23T04:11:52.845Z,24.88
2023-04-23T04:14:23.477Z,20.50
2023-04-23T04:16:52.016Z,26.02
2023-04-23T04:19:20.367Z,26.75
2023-04-23T04:21:48.849Z,21.80
2023-04-23T04:24:17.366Z,25.60
2023-04-23T04:26:46.133Z,26.70
2023-04-23T04:29:15.107Z,29.85
2023-04-23T04:31:45.133Z,24.17
2023-04-23T04:34:14.988Z,25.02
2023-04-23T04:36:43.952Z,22.27
2023-04-23T04:39:13.606Z,21.35
2023-04-23T04:41:42.934Z,25.35
2023-04-23T04:44:11.215Z,16.67
2023-04-23T04:46:40.688Z,19.02
2023-04-23T04:49:10.925Z,20.27
2023-04-23T04:51:40.758Z,25.52
2023-04-23T04:54:09.632Z,28.52
2023-04-23T04:56:38.183Z,31.27
2023-04-23T04:59:06.642Z,27.48
2023-04-23T05:01:37.255Z,31.23
2023-04-23T05:04:06.076Z,34.10
2023-04-23T05:06:36.091Z,38.45
2023-04-23T05:09:04.540Z,26.50
2023-04-23T05:11:33.267Z,35.60
2023-04-23T05:14:01.445Z,33.58
2023-04-23T05:16:30.028Z,31.90
2023-04-23T05:18:58.336Z,25.67
2023-04-23T05:21:28.003Z,25.05
2023-04-23T05:23:57.636Z,28.33
2023-04-23T05:26:26.162Z,21.27
2023-04-23T05:28:54.489Z,26.45
2023-04-23T05:31:23.258Z,21.42
2023-04-23T05:33:51.646Z,28.25
2023-04-23T05:36:20.690Z,25.13
2023-04-23T05:38:49.211Z,24.20
2023-04-23T05:41:19.100Z,22.55
2023-04-23T05:43:47.233Z,28.27
2023-04-23T05:46:15.835Z,21.98
2023-04-23T05:48:44.214Z,19.15
2023-04-23T05:51:12.725Z,30.05
2023-04-23T05:53:40.922Z,20.73
2023-04-23T05:56:09.398Z,18.42
2023-04-23T05:58:39.802Z,18.10
2023-04-23T06:01:08.870Z,26.48
2023-04-23T06:03:37.833Z,25.10
2023-04-23T06:06:07.129Z,22.38
2023-04-23T06:08:35.530Z,19.13
2023-04-23T06:11:04.067Z,16.48
2023-04-23T06:13:32.796Z,18.40
2023-04-23T06:16:02.750Z,21.50
2023-04-23T06:18:31.294Z,13.63
2023-04-23T06:21:04.223Z,27.55
2023-04-23T06:23:32.663Z,16.77
2023-04-23T06:26:01.880Z,19.02
2023-04-23T06:28:30.076Z,16.48
2023-04-23T06:30:58.662Z,13.30
2023-04-23T06:33:28.475Z,14.02
2023-04-23T06:35:57.194Z,17.05
2023-04-23T06:38:25.508Z,11.95
2023-04-23T06:40:54.333Z,11.75
2023-04-23T06:43:22.677Z,15.60
2023-04-23T06:45:51.209Z,11.80
2023-04-23T06:48:21.059Z,21.50
2023-04-23T06:50:51.040Z,12.95
2023-04-23T06:53:19.281Z,15.25
2023-04-23T06:55:49.846Z,11.25
2023-04-23T06:58:18.374Z,12.55
2023-04-23T07:00:46.985Z,10.10
2023-04-23T07:03:15.290Z,11.10
2023-04-23T07:05:44.043Z,12.10
2023-04-23T07:08:14.612Z,10.48
2023-04-23T07:10:43.262Z,22.90
2023-04-23T07:13:11.998Z,12.90
2023-04-23T07:15:41.687Z,7.10
2023-04-23T07:18:10.251Z,12.23
2023-04-23T07:20:39.246Z,8.27
2023-04-23T07:23:07.517Z,10.38
2023-04-23T07:25:38.073Z,6.75
2023-04-23T07:28:06.856Z,6.70
2023-04-23T07:30:35.634Z,8.65
2023-04-23T07:33:04.092Z,10.23
2023-04-23T07:35:32.628Z,16.27
2023-04-23T07:38:00.814Z,16.42
2023-04-23T07:40:29.298Z,9.50
2023-04-23T07:42:59.706Z,7.22
2023-04-23T07:45:28.213Z,14.15
2023-04-23T07:47:56.727Z,8.52
2023-04-23T07:50:25.553Z,8.65
2023-04-23T07:52:53.884Z,8.52
2023-04-23T07:55:22.693Z,6.65
2023-04-23T07:57:51.049Z,11.40
2023-04-23T08:00:21.354Z,8.77
2023-04-23T08:02:51.723Z,22.70
2023-04-23T08:05:20.680Z,6.65
2023-04-23T08:07:49.601Z,10.60
2023-04-23T08:10:18.281Z,7.97
2023-04-23T08:12:46.589Z,6.80
2023-04-23T08:15:15.462Z,9.75
2023-04-23T08:17:45.492Z,12.13
2023-04-23T08:20:14.031Z,5.18
2023-04-23T08:22:42.323Z,6.32
2023-04-23T08:25:12.766Z,6.93
2023-04-23T08:27:41.013Z,10.55
2023-04-23T08:30:10.445Z,4.22
2023-04-23T08:32:40.723Z,6.10
2023-04-23T08:35:11.084Z,4.95
2023-04-23T08:37:40.199Z,11.55
2023-04-23T08:40:10.376Z,5.68
2023-04-23T08:42:44.888Z,4.45
2023-04-23T08:45:14.382Z,4.50
2023-04-23T08:47:43.912Z,5.15
2023-04-23T08:50:16.786Z,5.18
2023-04-23T08:52:48.942Z,4.18
2023-04-23T08:55:18.964Z,5.38
2023-04-23T08:57:48.019Z,6.28
2023-04-23T09:00:18.954Z,9.27
2023-04-23T09:02:49.481Z,5.93
2023-04-23T09:05:19.758Z,5.32
2023-04-23T09:07:48.092Z,8.63
2023-04-23T09:10:18.639Z,6.88
2023-04-23T09:12:48.324Z,8.40
2023-04-23T09:15:18.046Z,4.50
2023-04-23T09:17:48.133Z,3.90
2023-04-23T09:20:17.669Z,5.80
2023-04-23T09:22:48.918Z,7.90
2023-04-23T09:25:19.499Z,5.68
2023-04-23T09:27:48.677Z,6.10
2023-04-23T09:30:18.430Z,5.93
2023-04-23T09:32:49.594Z,8.00
2023-04-23T09:35:20.828Z,9.98
2023-04-23T09:37:53.329Z,5.07
2023-04-23T09:40:24.866Z,8.52
2023-04-23T09:42:54.491Z,3.58
2023-04-23T09:45:25.156Z,3.30
2023-04-23T09:47:54.923Z,5.80
2023-04-23T09:50:34.200Z,7.88
2023-04-23T09:53:04.251Z,2.50
2023-04-23T09:55:35.847Z,4.72
2023-04-23T09:58:05.469Z,10.65
2023-04-23T10:00:36.441Z,8.48
2023-04-23T10:03:06.771Z,5.13
2023-04-23T10:05:59.454Z,9.77
2023-04-23T10:08:31.464Z,5.55
2023-04-23T10:11:10.134Z,3.70
2023-04-23T10:13:48.732Z,2.83
2023-04-23T10:16:23.361Z,2.00
2023-04-23T10:18:55.584Z,9.55
2023-04-23T10:21:34.014Z,3.00
2023-04-23T10:24:11.716Z,3.25
2023-04-23T10:26:43.219Z,3.10
2023-04-23T10:29:15.837Z,10.88
2023-04-23T10:31:44.893Z,9.85
2023-04-23T10:34:14.081Z,5.05
2023-04-23T10:36:42.927Z,11.55
2023-04-23T10:39:15.815Z,4.30
2023-04-23T10:41:49.864Z,3.92
2023-04-23T10:44:26.696Z,4.00
2023-04-23T10:47:08.195Z,2.08
2023-04-23T10:49:36.755Z,18.00
2023-04-23T10:54:43.994Z,3.13
2023-04-23T10:57:12.975Z,2.45
2023-04-23T10:59:52.392Z,4.10
2023-04-23T11:02:21.466Z,3.95
2023-04-23T11:04:57.712Z,11.98
2023-04-23T11:07:31.244Z,3.90
2023-04-23T11:10:11.935Z,2.28
2023-04-23T11:12:41.170Z,4.22
2023-04-23T11:15:14.309Z,2.13
2023-04-23T11:18:03.553Z,3.63
2023-04-23T11:20:31.952Z,3.03
2023-04-23T11:23:01.021Z,3.83
2023-04-23T11:25:31.064Z,4.60
2023-04-23T11:28:00.000Z,4.82
2023-04-23T11:30:30.032Z,2.85
2023-04-23T11:33:00.422Z,3.67
2023-04-23T11:35:30.571Z,7.22
2023-04-23T11:37:59.216Z,4.28
2023-04-23T11:40:29.771Z,5.28
2023-04-23T11:42:59.868Z,3.40
2023-04-23T11:45:29.867Z,6.78
2023-04-23T11:47:59.762Z,4.50
2023-04-23T11:50:29.936Z,6.38
2023-04-23T11:52:59.095Z,3.78
2023-04-23T11:55:27.453Z,3.95
2023-04-23T11:57:56.119Z,2.65
2023-04-23T12:00:27.930Z,3.22
2023-04-23T12:02:57.969Z,4.90
2023-04-23T12:05:30.317Z,5.60
2023-04-23T12:08:09.901Z,3.88
2023-04-23T12:10:47.048Z,4.45
2023-04-23T12:13:16.809Z,6.32
2023-04-23T12:15:51.640Z,5.50
2023-04-23T12:18:20.784Z,4.45
2023-04-23T12:20:49.010Z,4.43
2023-04-23T12:23:17.739Z,3.33
2023-04-23T12:25:46.222Z,2.72
2023-04-23T12:28:14.991Z,4.80
2023-04-23T12:30:46.350Z,3.30
2023-04-23T12:33:17.074Z,2.38
2023-04-23T12:35:48.066Z,4.18
2023-04-23T12:38:24.760Z,3.83
2023-04-23T12:40:53.374Z,1.55
2023-04-23T12:43:22.404Z,5.97
2023-04-23T12:45:51.294Z,2.65
2023-04-23T12:48:21.578Z,2.78
2023-04-23T12:50:50.326Z,11.20
2023-04-23T12:53:19.670Z,3.92
2023-04-23T12:55:48.503Z,2.70
2023-04-23T12:58:17.038Z,5.05
2023-04-23T13:00:46.389Z,2.45
2023-04-23T13:03:15.727Z,2.35
2023-04-23T13:05:45.384Z,3.53
2023-04-23T13:08:13.956Z,2.80
2023-04-23T13:10:42.378Z,4.07
2023-04-23T13:13:11.037Z,2.40
2023-04-23T13:15:39.272Z,1.90
2023-04-23T13:18:07.941Z,3.30
2023-04-23T13:20:36.112Z,4.65
2023-04-23T13:23:08.740Z,2.72
2023-04-23T13:25:37.551Z,12.75
2023-04-23T13:28:06.070Z,3.35
2023-04-23T13:30:34.375Z,3.38
2023-04-23T13:33:02.982Z,4.65
2023-04-23T13:35:31.315Z,3.03
2023-04-23T13:38:00.638Z,4.13
2023-04-23T13:40:30.327Z,8.77
2023-04-23T13:42:58.959Z,3.85
2023-04-23T13:45:27.732Z,2.95
2023-04-23T13:47:56.549Z,4.30
2023-04-23T13:50:24.919Z,2.92
2023-04-23T13:52:53.396Z,2.05
2023-04-23T13:55:21.588Z,3.95
2023-04-23T13:57:51.499Z,6.63
2023-04-23T14:00:19.878Z,2.47
2023-04-23T14:02:48.735Z,3.10
2023-04-23T14:05:17.216Z,8.30
2023-04-23T14:07:45.910Z,2.47
2023-04-23T14:10:15.312Z,2.80
2023-04-23T14:12:45.226Z,4.07
2023-04-23T14:15:15.023Z,4.10
2023-04-23T14:17:44.451Z,5.13
2023-04-23T14:20:15.528Z,2.90
2023-04-23T14:22:44.925Z,4.90
2023-04-23T14:25:17.090Z,4.05
2023-04-23T14:27:47.881Z,2.85
2023-04-23T14:30:20.566Z,2.97
2023-04-23T14:32:50.516Z,4.22
2023-04-23T14:35:24.529Z,2.40
2023-04-23T14:37:58.323Z,3.22
2023-04-23T14:40:26.618Z,2.28
2023-04-23T14:42:59.216Z,10.23
2023-04-23T14:45:34.500Z,2.90
2023-04-23T14:48:03.078Z,2.50
2023-04-23T14:50:31.561Z,7.57
2023-04-23T14:53:00.339Z,8.65
2023-04-23T14:55:28.909Z,2.92
2023-04-23T14:57:57.460Z,4.53
2023-04-23T15:00:26.201Z,5.22
2023-04-23T15:02:56.293Z,4.57
2023-04-23T15:05:25.304Z,2.97
2023-04-23T15:07:53.835Z,3.40
2023-04-23T15:10:23.554Z,2.90
2023-04-23T15:13:01.200Z,11.85
2023-04-23T15:15:44.271Z,4.25
2023-04-23T15:18:15.457Z,1.70
2023-04-23T15:20:44.512Z,3.53
2023-04-23T15:23:13.155Z,5.05
2023-04-23T15:25:41.641Z,3.15
2023-04-23T15:28:10.246Z,3.45
2023-04-23T15:30:39.769Z,2.90
2023-04-23T15:33:10.338Z,2.63
2023-04-23T15:35:40.501Z,2.65
2023-04-23T15:38:09.454Z,2.35
2023-04-23T15:40:42.289Z,3.30
2023-04-23T15:43:13.612Z,5.00
2023-04-23T15:45:42.653Z,5.05
2023-04-23T15:48:11.236Z,4.03
2023-04-23T15:50:40.868Z,7.30
2023-04-23T15:53:09.546Z,5.97
2023-04-23T15:55:39.196Z,6.65
2023-04-23T15:58:07.984Z,4.80
2023-04-23T16:00:36.263Z,7.47
2023-04-23T16:03:06.890Z,6.13
2023-04-23T16:05:36.626Z,2.75
2023-04-23T16:08:06.754Z,5.38
2023-04-23T16:10:35.225Z,3.35
2023-04-23T16:13:03.854Z,1.85
2023-04-23T16:15:32.190Z,9.02
2023-04-23T16:18:00.928Z,4.72
2023-04-23T16:20:29.830Z,4.30
2023-04-23T16:22:58.822Z,2.53
2023-04-23T16:25:29.010Z,7.57
2023-04-23T16:27:58.785Z,6.45
2023-04-23T16:30:27.207Z,4.30
2023-04-23T16:32:56.081Z,3.22
2023-04-23T16:35:24.610Z,6.80
2023-04-23T16:37:53.436Z,2.58
2023-04-23T16:40:21.865Z,4.22
2023-04-23T16:42:51.873Z,3.33
2023-04-23T16:45:23.176Z,2.53
2023-04-23T16:47:51.927Z,5.03
2023-04-23T16:50:20.847Z,6.85
2023-04-23T16:52:49.484Z,3.60
2023-04-23T16:55:17.910Z,5.95
2023-04-23T16:57:46.592Z,1.73
2023-04-23T17:00:17.994Z,7.20
2023-04-23T17:02:47.025Z,2.33
2023-04-23T17:05:15.890Z,2.53
2023-04-23T17:07:44.902Z,2.00
2023-04-23T17:10:15.365Z,2.95
2023-04-23T17:12:43.977Z,4.28
2023-04-23T17:15:13.047Z,3.33
2023-04-23T17:17:43.281Z,2.13
2023-04-23T17:20:11.625Z,4.85
2023-04-23T17:22:40.369Z,6.43
2023-04-23T17:25:09.864Z,2.17
2023-04-23T17:27:38.476Z,9.82
2023-04-23T17:30:08.078Z,3.78
2023-04-23T17:32:36.712Z,5.65
2023-04-23T17:35:10.606Z,6.38
2023-04-23T17:37:39.969Z,3.30
2023-04-23T17:40:10.770Z,4.38
2023-04-23T17:42:39.918Z,8.00
2023-04-23T17:45:10.091Z,4.03
2023-04-23T17:47:40.798Z,4.47
2023-04-23T17:50:12.010Z,6.40
2023-04-23T17:52:41.199Z,8.32
2023-04-23T17:55:10.318Z,11.90
2023-04-23T17:57:38.898Z,14.88
2023-04-23T18:00:10.769Z,8.45
2023-04-23T18:02:41.568Z,11.98
2023-04-23T18:05:14.679Z,9.10
2023-04-23T18:07:44.869Z,12.82
2023-04-23T18:10:13.406Z,12.77
2023-04-23T18:12:41.873Z,5.00
2023-04-23T18:15:12.402Z,6.38
2023-04-23T18:17:41.306Z,9.38
2023-04-23T18:20:11.778Z,6.70
2023-04-23T18:22:41.557Z,7.28
2023-04-23T18:25:11.460Z,8.05
2023-04-23T18:27:40.404Z,4.38
2023-04-23T18:30:09.935Z,6.22
2023-04-23T18:32:44.489Z,6.05
2023-04-23T18:35:14.785Z,4.07
2023-04-23T18:37:48.173Z,9.07
2023-04-23T18:40:16.508Z,2.25
2023-04-23T18:42:45.046Z,3.47
2023-04-23T18:45:13.583Z,3.47
2023-04-23T18:47:45.522Z,4.07
2023-04-23T18:50:32.336Z,3.30
2023-04-23T18:53:00.948Z,5.43
2023-04-23T18:55:29.186Z,5.95
2023-04-23T18:57:57.729Z,3.10
2023-04-23T19:00:26.224Z,3.88
2023-04-23T19:02:54.875Z,3.67
2023-04-23T19:05:23.247Z,4.95
2023-04-23T19:07:53.264Z,2.15
2023-04-23T19:10:21.699Z,3.10
2023-04-23T19:12:50.960Z,4.72
2023-04-23T19:15:19.397Z,6.78
2023-04-23T19:17:48.231Z,3.42
2023-04-23T19:20:18.611Z,3.42
2023-04-23T19:22:47.255Z,2.85
2023-04-23T19:25:17.785Z,3.17
2023-04-23T19:27:46.436Z,6.57
2023-04-23T19:30:15.023Z,6.20
2023-04-23T19:32:43.602Z,3.08
2023-04-23T19:35:12.177Z,2.05
2023-04-23T19:37:40.907Z,4.63
2023-04-23T19:40:10.708Z,8.88
2023-04-23T19:42:41.342Z,3.22
2023-04-23T19:45:10.274Z,3.30
2023-04-23T19:47:40.197Z,2.55
2023-04-23T19:50:10.047Z,2.15
2023-04-23T19:52:38.715Z,4.30
2023-04-23T19:55:08.467Z,4.05
2023-04-23T19:57:37.272Z,4.25
2023-04-23T20:00:12.404Z,2.53
2023-04-23T20:02:41.347Z,4.45
2023-04-23T20:05:10.644Z,2.65
2023-04-23T20:07:39.163Z,6.43
2023-04-23T20:10:08.729Z,4.60
2023-04-23T20:12:37.368Z,4.15
2023-04-23T20:15:08.394Z,3.97
2023-04-23T20:17:37.096Z,3.70
2023-04-23T20:20:06.633Z,3.78
2023-04-23T20:22:35.352Z,3.00
2023-04-23T20:25:03.830Z,3.55
2023-04-23T20:27:33.870Z,5.82
2023-04-23T20:30:02.252Z,4.40
2023-04-23T20:32:32.222Z,6.90
2023-04-23T20:35:00.582Z,4.00
2023-04-23T20:37:29.404Z,7.03
2023-04-23T20:39:58.468Z,8.13
2023-04-23T20:42:29.036Z,3.53
2023-04-23T20:44:57.705Z,7.43
2023-04-23T20:47:44.177Z,3.08
2023-04-23T20:50:14.191Z,4.28
2023-04-23T20:52:42.709Z,3.63
2023-04-23T20:55:13.899Z,3.95
2023-04-23T20:57:42.513Z,5.55
2023-04-23T21:00:14.231Z,2.55
2023-04-23T21:02:43.143Z,3.47
2023-04-23T21:05:14.542Z,2.50
2023-04-23T21:07:44.483Z,7.07
2023-04-23T21:10:13.083Z,6.38
2023-04-23T21:12:43.403Z,3.65
2023-04-23T21:15:13.349Z,3.53
2023-04-23T21:17:42.691Z,2.95
2023-04-23T21:20:11.610Z,4.00
2023-04-23T21:22:41.657Z,5.20
2023-04-23T21:25:10.772Z,8.48
2023-04-23T21:27:39.604Z,4.93
2023-04-23T21:30:15.723Z,4.70
2023-04-23T21:32:44.289Z,4.85
2023-04-23T21:35:12.723Z,4.40
2023-04-23T21:37:42.724Z,6.25
2023-04-23T21:40:11.418Z,7.63
2023-04-23T21:42:40.376Z,5.32
2023-04-23T21:45:09.540Z,4.10
2023-04-23T21:47:38.849Z,4.70
2023-04-23T21:50:08.985Z,3.33
2023-04-23T21:52:37.981Z,3.38
2023-04-23T21:55:09.092Z,9.93
2023-04-23T21:57:39.388Z,4.75
2023-04-23T22:00:11.372Z,6.03
2023-04-23T22:02:40.506Z,4.53
2023-04-23T22:05:10.384Z,5.03
2023-04-23T22:07:41.376Z,5.10
2023-04-23T22:10:13.209Z,8.45
2023-04-23T22:12:42.796Z,4.63
2023-04-23T22:15:13.334Z,4.65
2023-04-23T22:17:43.402Z,4.88
2023-04-23T22:20:13.435Z,3.22
2023-04-23T22:22:43.186Z,5.03
2023-04-23T22:25:13.066Z,9.07
2023-04-23T22:27:42.953Z,5.60
2023-04-23T22:30:14.557Z,6.25
2023-04-23T22:32:43.347Z,6.13
2023-04-23T22:35:12.003Z,6.10
2023-04-23T22:37:40.824Z,3.60
2023-04-23T22:40:10.842Z,3.47
2023-04-23T22:42:40.821Z,5.38
2023-04-23T22:45:09.599Z,3.88
2023-04-23T22:47:38.403Z,9.63
2023-04-23T22:50:07.832Z,10.80
2023-04-23T22:52:39.572Z,7.78
2023-04-23T22:55:09.497Z,6.13
2023-04-23T22:57:38.178Z,5.90
2023-04-23T23:00:11.112Z,4.60
2023-04-23T23:02:40.061Z,8.48
2023-04-23T23:05:09.712Z,6.57
2023-04-23T23:07:38.578Z,11.40
2023-04-23T23:10:08.836Z,6.95
2023-04-23T23:12:39.140Z,6.28
2023-04-23T23:15:10.714Z,5.72
2023-04-23T23:17:39.616Z,7.78
2023-04-23T23:20:09.117Z,7.63
2023-04-23T23:22:37.857Z,5.65
2023-04-23T23:25:07.641Z,7.80
2023-04-23T23:27:36.413Z,7.05
2023-04-23T23:30:06.130Z,4.95
2023-04-23T23:32:36.248Z,8.02
2023-04-23T23:35:04.960Z,4.78
2023-04-23T23:37:33.450Z,8.40
2023-04-23T23:40:01.778Z,8.70
2023-04-23T23:42:30.256Z,13.68
2023-04-23T23:44:58.429Z,9.57
2023-04-23T23:47:27.117Z,4.68
2023-04-23T23:49:56.725Z,6.35
2023-04-23T23:52:25.331Z,7.95
2023-04-23T23:54:53.592Z,11.40
2023-04-23T23:57:22.050Z,5.95
2023-04-23T23:59:50.540Z,6.07
